Taylor, Louisiana
Current Conditions -  °F | °C
As of 5:55 AM on Friday 19 Dec 2014 (Local Time) from KMNE Reporting Station
Overcast Overcast  
Wind Chill: 48°   Ceiling: 2200
Heat Index: 48°   Visibility: 10mi
Dew Point: 45°   Wind: 3mph
Humidity: 87%   Direction: 60°ENE
Pressure: 30.13"   Gusts: NA
Location:  32.55°N, 93.12°W
Report Text: KMNE 191155Z AUTO 06003KT 10SM SCT009 BKN022 OVC033 09/07 A3013 RMK AO2 LTG DSNT SE AND W
Loading
Personal Weather Stations






























Interactive Weather Map New forecast layout! Learn more

10-Day Weather Forecast

Advertisements
Track Severe Weather on mobile